sensor_id;sensor_type;location;lat;lon;timestamp;P1;durP1;ratioP1;P2;durP2;ratioP2
2934;SDS011;2462;51.456;7.248;2022-09-09T00:02:17;1.90;;;1.43;;
2934;SDS011;2462;51.456;7.248;2022-09-09T00:04:43;1.53;;;0.93;;
2934;SDS011;2462;51.456;7.248;2022-09-09T00:10:23;1.47;;;1.00;;
2934;SDS011;2462;51.456;7.248;2022-09-09T00:12:57;3.80;;;1.00;;
2934;SDS011;2462;51.456;7.248;2022-09-09T00:15:25;1.47;;;1.00;;
2934;SDS011;2462;51.456;7.248;2022-09-09T00:21:10;1.27;;;0.87;;
2934;SDS011;2462;51.456;7.248;2022-09-09T00:23:44;1.00;;;0.80;;
2934;SDS011;2462;51.456;7.248;2022-09-09T00:26:19;1.50;;;0.90;;
2934;SDS011;2462;51.456;7.248;2022-09-09T00:31:48;2.40;;;0.97;;
2934;SDS011;2462;51.456;7.248;2022-09-09T00:34:21;2.80;;;0.80;;
2934;SDS011;2462;51.456;7.248;2022-09-09T00:36:50;0.90;;;0.70;;
2934;SDS011;2462;51.456;7.248;2022-09-09T00:39:40;1.10;;;0.77;;
2934;SDS011;2462;51.456;7.248;2022-09-09T00:42:14;2.67;;;1.10;;
2934;SDS011;2462;51.456;7.248;2022-09-09T00:44:53;1.00;;;0.70;;
2934;SDS011;2462;51.456;7.248;2022-09-09T00:50:01;1.13;;;0.70;;
2934;SDS011;2462;51.456;7.248;2022-09-09T00:57:53;1.40;;;0.70;;
2934;SDS011;2462;51.456;7.248;2022-09-09T01:00:22;1.20;;;0.83;;
2934;SDS011;2462;51.456;7.248;2022-09-09T01:02:54;2.40;;;0.90;;
2934;SDS011;2462;51.456;7.248;2022-09-09T01:08:13;2.00;;;1.10;;
2934;SDS011;2462;51.456;7.248;2022-09-09T01:10:51;1.20;;;0.90;;
2934;SDS011;2462;51.456;7.248;2022-09-09T01:13:34;1.70;;;0.93;;
2934;SDS011;2462;51.456;7.248;2022-09-09T01:16:03;1.60;;;1.00;;
2934;SDS011;2462;51.456;7.248;2022-09-09T01:18:34;2.03;;;1.10;;
2934;SDS011;2462;51.456;7.248;2022-09-09T01:21:16;2.07;;;1.00;;
2934;SDS011;2462;51.456;7.248;2022-09-09T01:23:55;5.87;;;1.77;;
2934;SDS011;2462;51.456;7.248;2022-09-09T01:29:12;1.70;;;1.20;;
2934;SDS011;2462;51.456;7.248;2022-09-09T01:31:42;3.00;;;1.37;;
2934;SDS011;2462;51.456;7.248;2022-09-09T01:34:17;3.20;;;1.73;;
2934;SDS011;2462;51.456;7.248;2022-09-09T01:36:44;2.20;;;1.23;;
2934;SDS011;2462;51.456;7.248;2022-09-09T01:39:27;6.10;;;1.60;;
2934;SDS011;2462;51.456;7.248;2022-09-09T01:41:53;1.90;;;1.60;;
2934;SDS011;2462;51.456;7.248;2022-09-09T01:44:20;2.00;;;1.80;;
2934;SDS011;2462;51.456;7.248;2022-09-09T01:46:47;2.80;;;1.53;;
2934;SDS011;2462;51.456;7.248;2022-09-09T01:49:13;3.77;;;1.80;;
2934;SDS011;2462;51.456;7.248;2022-09-09T01:51:38;3.20;;;1.90;;
2934;SDS011;2462;51.456;7.248;2022-09-09T01:54:06;2.33;;;1.50;;
2934;SDS011;2462;51.456;7.248;2022-09-09T02:10:44;2.10;;;1.90;;
2934;SDS011;2462;51.456;7.248;2022-09-09T02:13:19;1.73;;;1.63;;
2934;SDS011;2462;51.456;7.248;2022-09-09T02:15:54;5.13;;;1.87;;
2934;SDS011;2462;51.456;7.248;2022-09-09T02:18:36;2.00;;;1.70;;
2934;SDS011;2462;51.456;7.248;2022-09-09T02:21:07;4.00;;;1.47;;
2934;SDS011;2462;51.456;7.248;2022-09-09T02:23:36;4.80;;;1.60;;
2934;SDS011;2462;51.456;7.248;2022-09-09T02:26:04;4.67;;;2.10;;
2934;SDS011;2462;51.456;7.248;2022-09-09T02:28:32;5.90;;;1.93;;
2934;SDS011;2462;51.456;7.248;2022-09-09T02:30:59;2.20;;;1.47;;
2934;SDS011;2462;51.456;7.248;2022-09-09T02:33:26;4.00;;;1.70;;
2934;SDS011;2462;51.456;7.248;2022-09-09T02:35:55;2.83;;;1.87;;
2934;SDS011;2462;51.456;7.248;2022-09-09T02:38:26;2.50;;;1.77;;
2934;SDS011;2462;51.456;7.248;2022-09-09T02:40:57;2.60;;;1.60;;
2934;SDS011;2462;51.456;7.248;2022-09-09T02:43:23;2.60;;;1.80;;
2934;SDS011;2462;51.456;7.248;2022-09-09T02:48:26;2.33;;;1.83;;
2934;SDS011;2462;51.456;7.248;2022-09-09T02:53:43;2.60;;;1.97;;
2934;SDS011;2462;51.456;7.248;2022-09-09T02:56:31;3.33;;;1.67;;
2934;SDS011;2462;51.456;7.248;2022-09-09T02:59:02;2.80;;;1.53;;
2934;SDS011;2462;51.456;7.248;2022-09-09T03:01:29;3.93;;;1.50;;
2934;SDS011;2462;51.456;7.248;2022-09-09T03:03:55;3.10;;;1.40;;
2934;SDS011;2462;51.456;7.248;2022-09-09T03:06:20;3.30;;;1.50;;
2934;SDS011;2462;51.456;7.248;2022-09-09T03:08:46;1.97;;;1.50;;
2934;SDS011;2462;51.456;7.248;2022-09-09T03:11:14;2.50;;;1.40;;
2934;SDS011;2462;51.456;7.248;2022-09-09T03:13:40;3.20;;;1.70;;
2934;SDS011;2462;51.456;7.248;2022-09-09T03:16:06;2.20;;;1.40;;
2934;SDS011;2462;51.456;7.248;2022-09-09T03:18:31;3.10;;;1.67;;
2934;SDS011;2462;51.456;7.248;2022-09-09T03:20:57;4.20;;;1.90;;
2934;SDS011;2462;51.456;7.248;2022-09-09T03:23:24;3.57;;;1.63;;
2934;SDS011;2462;51.456;7.248;2022-09-09T03:25:50;2.73;;;1.50;;
2934;SDS011;2462;51.456;7.248;2022-09-09T03:28:16;2.10;;;1.57;;
2934;SDS011;2462;51.456;7.248;2022-09-09T03:30:42;1.67;;;1.37;;
2934;SDS011;2462;51.456;7.248;2022-09-09T03:33:08;2.70;;;1.40;;
2934;SDS011;2462;51.456;7.248;2022-09-09T03:35:34;5.73;;;1.83;;
2934;SDS011;2462;51.456;7.248;2022-09-09T03:37:59;2.50;;;1.60;;
2934;SDS011;2462;51.456;7.248;2022-09-09T03:40:25;7.97;;;2.03;;
2934;SDS011;2462;51.456;7.248;2022-09-09T03:42:51;2.33;;;1.40;;
2934;SDS011;2462;51.456;7.248;2022-09-09T03:45:16;3.70;;;1.47;;
2934;SDS011;2462;51.456;7.248;2022-09-09T03:47:42;2.57;;;1.40;;
2934;SDS011;2462;51.456;7.248;2022-09-09T03:50:08;4.70;;;1.67;;
2934;SDS011;2462;51.456;7.248;2022-09-09T03:52:35;3.07;;;1.30;;
2934;SDS011;2462;51.456;7.248;2022-09-09T03:55:05;3.43;;;1.57;;
2934;SDS011;2462;51.456;7.248;2022-09-09T03:57:31;3.10;;;1.07;;
2934;SDS011;2462;51.456;7.248;2022-09-09T03:59:59;2.67;;;1.53;;
2934;SDS011;2462;51.456;7.248;2022-09-09T04:02:26;3.37;;;1.57;;
2934;SDS011;2462;51.456;7.248;2022-09-09T04:04:52;2.90;;;1.77;;
2934;SDS011;2462;51.456;7.248;2022-09-09T04:07:17;6.30;;;1.40;;
2934;SDS011;2462;51.456;7.248;2022-09-09T04:09:43;2.43;;;1.73;;
2934;SDS011;2462;51.456;7.248;2022-09-09T04:12:08;3.37;;;1.30;;
2934;SDS011;2462;51.456;7.248;2022-09-09T04:14:36;4.70;;;1.23;;
2934;SDS011;2462;51.456;7.248;2022-09-09T04:17:01;1.87;;;1.30;;
2934;SDS011;2462;51.456;7.248;2022-09-09T04:19:31;2.80;;;1.60;;
2934;SDS011;2462;51.456;7.248;2022-09-09T04:21:56;2.93;;;1.73;;
2934;SDS011;2462;51.456;7.248;2022-09-09T04:24:22;2.47;;;1.50;;
2934;SDS011;2462;51.456;7.248;2022-09-09T04:26:48;1.73;;;1.40;;
2934;SDS011;2462;51.456;7.248;2022-09-09T04:29:13;4.33;;;1.80;;
2934;SDS011;2462;51.456;7.248;2022-09-09T04:31:39;3.87;;;1.53;;
2934;SDS011;2462;51.456;7.248;2022-09-09T04:34:07;2.70;;;1.23;;
2934;SDS011;2462;51.456;7.248;2022-09-09T04:36:33;5.63;;;2.43;;
2934;SDS011;2462;51.456;7.248;2022-09-09T04:38:59;3.17;;;1.57;;
2934;SDS011;2462;51.456;7.248;2022-09-09T04:41:25;2.33;;;1.40;;
2934;SDS011;2462;51.456;7.248;2022-09-09T04:43:51;2.30;;;1.57;;
2934;SDS011;2462;51.456;7.248;2022-09-09T04:46:18;2.60;;;1.20;;
2934;SDS011;2462;51.456;7.248;2022-09-09T04:48:44;3.60;;;1.50;;
2934;SDS011;2462;51.456;7.248;2022-09-09T04:51:11;1.60;;;1.50;;
2934;SDS011;2462;51.456;7.248;2022-09-09T04:53:38;5.07;;;1.60;;
2934;SDS011;2462;51.456;7.248;2022-09-09T04:56:08;2.53;;;1.47;;
2934;SDS011;2462;51.456;7.248;2022-09-09T04:58:35;5.30;;;1.90;;
2934;SDS011;2462;51.456;7.248;2022-09-09T05:01:18;2.77;;;1.70;;
2934;SDS011;2462;51.456;7.248;2022-09-09T05:03:46;4.43;;;2.00;;
2934;SDS011;2462;51.456;7.248;2022-09-09T05:06:16;8.00;;;2.07;;
2934;SDS011;2462;51.456;7.248;2022-09-09T05:08:44;3.97;;;2.20;;
2934;SDS011;2462;51.456;7.248;2022-09-09T05:11:13;3.10;;;2.03;;
2934;SDS011;2462;51.456;7.248;2022-09-09T05:13:39;8.03;;;2.80;;
2934;SDS011;2462;51.456;7.248;2022-09-09T05:16:05;4.17;;;2.87;;
2934;SDS011;2462;51.456;7.248;2022-09-09T05:18:30;6.37;;;2.23;;
2934;SDS011;2462;51.456;7.248;2022-09-09T05:20:59;5.10;;;2.30;;
2934;SDS011;2462;51.456;7.248;2022-09-09T05:23:25;3.70;;;2.30;;
2934;SDS011;2462;51.456;7.248;2022-09-09T05:25:57;4.50;;;2.07;;
2934;SDS011;2462;51.456;7.248;2022-09-09T05:28:24;3.30;;;1.90;;
2934;SDS011;2462;51.456;7.248;2022-09-09T05:30:57;2.93;;;1.67;;
2934;SDS011;2462;51.456;7.248;2022-09-09T05:33:24;4.20;;;1.70;;
2934;SDS011;2462;51.456;7.248;2022-09-09T05:35:57;3.70;;;2.13;;
2934;SDS011;2462;51.456;7.248;2022-09-09T05:38:30;5.83;;;1.83;;
2934;SDS011;2462;51.456;7.248;2022-09-09T05:41:00;4.40;;;1.70;;
2934;SDS011;2462;51.456;7.248;2022-09-09T05:43:27;5.30;;;1.87;;
2934;SDS011;2462;51.456;7.248;2022-09-09T05:46:07;3.10;;;1.40;;
2934;SDS011;2462;51.456;7.248;2022-09-09T05:48:35;8.23;;;2.37;;
2934;SDS011;2462;51.456;7.248;2022-09-09T05:51:02;2.43;;;1.70;;
2934;SDS011;2462;51.456;7.248;2022-09-09T05:53:29;3.50;;;1.40;;
2934;SDS011;2462;51.456;7.248;2022-09-09T05:56:13;5.90;;;1.80;;
2934;SDS011;2462;51.456;7.248;2022-09-09T05:58:44;5.83;;;1.83;;
2934;SDS011;2462;51.456;7.248;2022-09-09T06:01:16;4.40;;;2.20;;
2934;SDS011;2462;51.456;7.248;2022-09-09T06:03:44;2.60;;;1.90;;
2934;SDS011;2462;51.456;7.248;2022-09-09T06:06:11;6.07;;;1.93;;
2934;SDS011;2462;51.456;7.248;2022-09-09T06:08:43;4.43;;;1.67;;
2934;SDS011;2462;51.456;7.248;2022-09-09T06:11:11;6.90;;;2.07;;
2934;SDS011;2462;51.456;7.248;2022-09-09T06:13:37;3.40;;;1.90;;
2934;SDS011;2462;51.456;7.248;2022-09-09T06:16:04;4.93;;;1.67;;
2934;SDS011;2462;51.456;7.248;2022-09-09T06:18:40;3.30;;;1.77;;
2934;SDS011;2462;51.456;7.248;2022-09-09T06:21:07;2.60;;;1.60;;
2934;SDS011;2462;51.456;7.248;2022-09-09T06:23:36;6.80;;;1.83;;
2934;SDS011;2462;51.456;7.248;2022-09-09T06:28:33;4.83;;;1.90;;
2934;SDS011;2462;51.456;7.248;2022-09-09T06:31:03;2.70;;;2.20;;
2934;SDS011;2462;51.456;7.248;2022-09-09T06:33:30;2.33;;;1.80;;
2934;SDS011;2462;51.456;7.248;2022-09-09T06:35:57;3.60;;;2.07;;
2934;SDS011;2462;51.456;7.248;2022-09-09T06:38:23;3.00;;;1.57;;
2934;SDS011;2462;51.456;7.248;2022-09-09T06:40:55;6.40;;;2.30;;
2934;SDS011;2462;51.456;7.248;2022-09-09T06:43:23;2.60;;;2.07;;
2934;SDS011;2462;51.456;7.248;2022-09-09T06:45:52;2.10;;;1.90;;
2934;SDS011;2462;51.456;7.248;2022-09-09T06:48:28;3.60;;;2.07;;
2934;SDS011;2462;51.456;7.248;2022-09-09T06:51:00;4.30;;;2.47;;
2934;SDS011;2462;51.456;7.248;2022-09-09T06:53:30;4.33;;;2.13;;
2934;SDS011;2462;51.456;7.248;2022-09-09T06:55:58;5.30;;;1.60;;
2934;SDS011;2462;51.456;7.248;2022-09-09T06:58:27;6.00;;;1.70;;
2934;SDS011;2462;51.456;7.248;2022-09-09T07:01:01;3.77;;;2.07;;
2934;SDS011;2462;51.456;7.248;2022-09-09T07:03:28;2.57;;;1.90;;
2934;SDS011;2462;51.456;7.248;2022-09-09T07:05:54;3.47;;;1.57;;
2934;SDS011;2462;51.456;7.248;2022-09-09T07:08:21;4.67;;;1.50;;
2934;SDS011;2462;51.456;7.248;2022-09-09T07:10:47;3.50;;;1.40;;
2934;SDS011;2462;51.456;7.248;2022-09-09T07:13:13;3.83;;;1.90;;
2934;SDS011;2462;51.456;7.248;2022-09-09T07:15:40;7.40;;;2.00;;
2934;SDS011;2462;51.456;7.248;2022-09-09T07:18:06;3.03;;;1.70;;
2934;SDS011;2462;51.456;7.248;2022-09-09T07:20:32;8.33;;;1.60;;
2934;SDS011;2462;51.456;7.248;2022-09-09T07:22:57;2.70;;;1.67;;
2934;SDS011;2462;51.456;7.248;2022-09-09T07:25:24;5.07;;;1.83;;
2934;SDS011;2462;51.456;7.248;2022-09-09T07:27:52;4.33;;;1.40;;
2934;SDS011;2462;51.456;7.248;2022-09-09T07:30:19;3.13;;;1.47;;
2934;SDS011;2462;51.456;7.248;2022-09-09T07:32:45;5.90;;;1.70;;
2934;SDS011;2462;51.456;7.248;2022-09-09T07:35:10;5.50;;;2.17;;
2934;SDS011;2462;51.456;7.248;2022-09-09T07:37:37;3.93;;;1.30;;
2934;SDS011;2462;51.456;7.248;2022-09-09T07:40:02;3.00;;;1.50;;
2934;SDS011;2462;51.456;7.248;2022-09-09T07:42:28;4.47;;;1.70;;
2934;SDS011;2462;51.456;7.248;2022-09-09T07:44:54;4.27;;;1.30;;
2934;SDS011;2462;51.456;7.248;2022-09-09T07:47:20;4.07;;;1.30;;
2934;SDS011;2462;51.456;7.248;2022-09-09T07:49:46;4.23;;;1.60;;
2934;SDS011;2462;51.456;7.248;2022-09-09T07:52:11;2.50;;;1.43;;
2934;SDS011;2462;51.456;7.248;2022-09-09T07:54:37;3.57;;;1.23;;
2934;SDS011;2462;51.456;7.248;2022-09-09T07:57:03;1.97;;;1.43;;
2934;SDS011;2462;51.456;7.248;2022-09-09T07:59:29;5.03;;;1.97;;
2934;SDS011;2462;51.456;7.248;2022-09-09T08:01:55;6.00;;;1.87;;
2934;SDS011;2462;51.456;7.248;2022-09-09T08:04:21;3.80;;;1.97;;
2934;SDS011;2462;51.456;7.248;2022-09-09T08:06:49;3.97;;;1.67;;
2934;SDS011;2462;51.456;7.248;2022-09-09T08:09:17;5.90;;;1.30;;
2934;SDS011;2462;51.456;7.248;2022-09-09T08:11:44;2.77;;;1.17;;
2934;SDS011;2462;51.456;7.248;2022-09-09T08:14:10;7.37;;;1.70;;
2934;SDS011;2462;51.456;7.248;2022-09-09T08:16:38;3.00;;;1.47;;
2934;SDS011;2462;51.456;7.248;2022-09-09T08:19:06;5.23;;;1.40;;
2934;SDS011;2462;51.456;7.248;2022-09-09T08:21:32;4.60;;;1.80;;
2934;SDS011;2462;51.456;7.248;2022-09-09T08:24:02;3.63;;;1.27;;
2934;SDS011;2462;51.456;7.248;2022-09-09T08:26:29;6.23;;;1.87;;
2934;SDS011;2462;51.456;7.248;2022-09-09T08:28:57;3.10;;;1.60;;
2934;SDS011;2462;51.456;7.248;2022-09-09T08:31:25;4.97;;;1.53;;
2934;SDS011;2462;51.456;7.248;2022-09-09T08:33:55;4.67;;;1.60;;
2934;SDS011;2462;51.456;7.248;2022-09-09T08:36:23;3.80;;;1.33;;
2934;SDS011;2462;51.456;7.248;2022-09-09T08:38:51;5.40;;;1.13;;
2934;SDS011;2462;51.456;7.248;2022-09-09T08:46:57;2.53;;;1.40;;
2934;SDS011;2462;51.456;7.248;2022-09-09T08:52:22;6.40;;;2.40;;
2934;SDS011;2462;51.456;7.248;2022-09-09T08:55:12;2.97;;;1.47;;
2934;SDS011;2462;51.456;7.248;2022-09-09T08:57:50;6.17;;;2.00;;
2934;SDS011;2462;51.456;7.248;2022-09-09T09:00:18;4.00;;;1.73;;
2934;SDS011;2462;51.456;7.248;2022-09-09T09:02:47;4.03;;;1.97;;
2934;SDS011;2462;51.456;7.248;2022-09-09T09:05:26;2.87;;;1.90;;
2934;SDS011;2462;51.456;7.248;2022-09-09T09:13:01;3.30;;;2.20;;
2934;SDS011;2462;51.456;7.248;2022-09-09T09:15:32;2.73;;;1.83;;
2934;SDS011;2462;51.456;7.248;2022-09-09T09:18:03;4.47;;;2.30;;
2934;SDS011;2462;51.456;7.248;2022-09-09T09:20:33;5.80;;;1.93;;
2934;SDS011;2462;51.456;7.248;2022-09-09T09:23:19;4.43;;;2.03;;
2934;SDS011;2462;51.456;7.248;2022-09-09T09:25:47;4.17;;;1.97;;
2934;SDS011;2462;51.456;7.248;2022-09-09T09:28:17;2.60;;;1.90;;
2934;SDS011;2462;51.456;7.248;2022-09-09T09:30:51;5.23;;;2.17;;
2934;SDS011;2462;51.456;7.248;2022-09-09T09:36:18;6.30;;;2.13;;
2934;SDS011;2462;51.456;7.248;2022-09-09T09:38:53;3.57;;;1.90;;
2934;SDS011;2462;51.456;7.248;2022-09-09T09:43:55;5.90;;;2.17;;
2934;SDS011;2462;51.456;7.248;2022-09-09T09:46:22;8.23;;;1.90;;
2934;SDS011;2462;51.456;7.248;2022-09-09T09:49:23;3.13;;;1.60;;
2934;SDS011;2462;51.456;7.248;2022-09-09T09:51:42;4.43;;;1.60;;
2934;SDS011;2462;51.456;7.248;2022-09-09T09:54:09;4.50;;;1.70;;
2934;SDS011;2462;51.456;7.248;2022-09-09T09:56:38;3.60;;;1.43;;
2934;SDS011;2462;51.456;7.248;2022-09-09T09:59:05;3.83;;;1.30;;
2934;SDS011;2462;51.456;7.248;2022-09-09T10:01:45;6.57;;;1.90;;
2934;SDS011;2462;51.456;7.248;2022-09-09T10:04:15;4.00;;;1.43;;
2934;SDS011;2462;51.456;7.248;2022-09-09T10:06:41;3.13;;;1.43;;
2934;SDS011;2462;51.456;7.248;2022-09-09T10:09:23;3.73;;;1.30;;
2934;SDS011;2462;51.456;7.248;2022-09-09T10:20:07;6.00;;;1.63;;
2934;SDS011;2462;51.456;7.248;2022-09-09T10:22:37;3.60;;;1.53;;
2934;SDS011;2462;51.456;7.248;2022-09-09T10:28:09;3.53;;;1.47;;
2934;SDS011;2462;51.456;7.248;2022-09-09T10:33:32;3.23;;;1.40;;
2934;SDS011;2462;51.456;7.248;2022-09-09T10:38:40;4.30;;;1.63;;
2934;SDS011;2462;51.456;7.248;2022-09-09T10:41:18;3.00;;;1.50;;
2934;SDS011;2462;51.456;7.248;2022-09-09T10:49:35;5.30;;;1.40;;
2934;SDS011;2462;51.456;7.248;2022-09-09T10:55:19;3.77;;;1.20;;
2934;SDS011;2462;51.456;7.248;2022-09-09T10:57:50;3.20;;;1.20;;
2934;SDS011;2462;51.456;7.248;2022-09-09T11:00:22;1.63;;;0.90;;
2934;SDS011;2462;51.456;7.248;2022-09-09T11:02:55;1.57;;;1.13;;
2934;SDS011;2462;51.456;7.248;2022-09-09T11:08:21;3.30;;;1.23;;
2934;SDS011;2462;51.456;7.248;2022-09-09T11:13:56;1.97;;;0.93;;
2934;SDS011;2462;51.456;7.248;2022-09-09T11:21:50;2.70;;;1.20;;
2934;SDS011;2462;51.456;7.248;2022-09-09T11:24:21;2.60;;;1.50;;
2934;SDS011;2462;51.456;7.248;2022-09-09T11:26:55;4.20;;;1.20;;
2934;SDS011;2462;51.456;7.248;2022-09-09T11:29:50;2.90;;;1.03;;
2934;SDS011;2462;51.456;7.248;2022-09-09T11:40:53;2.93;;;1.03;;
2934;SDS011;2462;51.456;7.248;2022-09-09T11:43:41;3.43;;;1.20;;
2934;SDS011;2462;51.456;7.248;2022-09-09T11:46:09;2.70;;;1.33;;
2934;SDS011;2462;51.456;7.248;2022-09-09T11:48:38;2.90;;;1.47;;
2934;SDS011;2462;51.456;7.248;2022-09-09T11:53:59;2.50;;;1.10;;
2934;SDS011;2462;51.456;7.248;2022-09-09T11:59:25;3.50;;;1.10;;
2934;SDS011;2462;51.456;7.248;2022-09-09T12:01:57;4.17;;;1.20;;
2934;SDS011;2462;51.456;7.248;2022-09-09T12:07:21;5.33;;;1.57;;
2934;SDS011;2462;51.456;7.248;2022-09-09T12:10:03;1.93;;;1.20;;
2934;SDS011;2462;51.456;7.248;2022-09-09T12:12:46;1.10;;;0.90;;
2934;SDS011;2462;51.456;7.248;2022-09-09T12:17:42;4.03;;;1.07;;
2934;SDS011;2462;51.456;7.248;2022-09-09T12:20:17;2.37;;;1.43;;
2934;SDS011;2462;51.456;7.248;2022-09-09T12:23:11;3.10;;;1.30;;
2934;SDS011;2462;51.456;7.248;2022-09-09T12:31:25;3.43;;;1.40;;
2934;SDS011;2462;51.456;7.248;2022-09-09T12:33:53;3.37;;;1.27;;
2934;SDS011;2462;51.456;7.248;2022-09-09T12:36:19;6.63;;;1.20;;
2934;SDS011;2462;51.456;7.248;2022-09-09T12:38:49;7.73;;;1.40;;
2934;SDS011;2462;51.456;7.248;2022-09-09T12:41:23;3.77;;;1.47;;
2934;SDS011;2462;51.456;7.248;2022-09-09T12:43:50;3.40;;;1.00;;
2934;SDS011;2462;51.456;7.248;2022-09-09T12:46:20;4.57;;;1.43;;
2934;SDS011;2462;51.456;7.248;2022-09-09T12:49:01;5.30;;;1.13;;
2934;SDS011;2462;51.456;7.248;2022-09-09T12:51:30;2.87;;;1.10;;
2934;SDS011;2462;51.456;7.248;2022-09-09T12:53:58;1.80;;;1.00;;
2934;SDS011;2462;51.456;7.248;2022-09-09T12:56:25;5.77;;;1.37;;
2934;SDS011;2462;51.456;7.248;2022-09-09T12:58:52;3.50;;;0.90;;
2934;SDS011;2462;51.456;7.248;2022-09-09T13:01:27;4.53;;;1.00;;
2934;SDS011;2462;51.456;7.248;2022-09-09T13:03:54;2.70;;;1.07;;
2934;SDS011;2462;51.456;7.248;2022-09-09T13:06:22;3.97;;;1.20;;
2934;SDS011;2462;51.456;7.248;2022-09-09T13:08:50;1.20;;;1.00;;
2934;SDS011;2462;51.456;7.248;2022-09-09T13:11:19;1.40;;;0.97;;
2934;SDS011;2462;51.456;7.248;2022-09-09T13:13:54;3.10;;;1.30;;
2934;SDS011;2462;51.456;7.248;2022-09-09T13:16:28;2.50;;;0.93;;
2934;SDS011;2462;51.456;7.248;2022-09-09T13:19:01;7.07;;;1.40;;
2934;SDS011;2462;51.456;7.248;2022-09-09T13:21:34;1.93;;;0.80;;
2934;SDS011;2462;51.456;7.248;2022-09-09T13:24:02;3.83;;;1.00;;
2934;SDS011;2462;51.456;7.248;2022-09-09T13:26:32;4.03;;;1.30;;
2934;SDS011;2462;51.456;7.248;2022-09-09T13:29:15;3.83;;;1.33;;
2934;SDS011;2462;51.456;7.248;2022-09-09T13:31:43;5.53;;;1.50;;
2934;SDS011;2462;51.456;7.248;2022-09-09T13:37:04;1.60;;;0.87;;
2934;SDS011;2462;51.456;7.248;2022-09-09T13:39:35;2.40;;;1.03;;
2934;SDS011;2462;51.456;7.248;2022-09-09T13:42:03;3.83;;;1.13;;
2934;SDS011;2462;51.456;7.248;2022-09-09T13:44:36;3.90;;;1.20;;
2934;SDS011;2462;51.456;7.248;2022-09-09T13:47:17;3.10;;;1.00;;
2934;SDS011;2462;51.456;7.248;2022-09-09T13:49:48;3.50;;;0.97;;
2934;SDS011;2462;51.456;7.248;2022-09-09T13:52:17;2.43;;;1.10;;
2934;SDS011;2462;51.456;7.248;2022-09-09T13:54:50;6.00;;;1.60;;
2934;SDS011;2462;51.456;7.248;2022-09-09T13:57:18;3.30;;;1.03;;
2934;SDS011;2462;51.456;7.248;2022-09-09T13:59:45;3.33;;;1.13;;
2934;SDS011;2462;51.456;7.248;2022-09-09T14:02:11;3.13;;;1.43;;
2934;SDS011;2462;51.456;7.248;2022-09-09T14:04:36;4.47;;;1.67;;
2934;SDS011;2462;51.456;7.248;2022-09-09T14:07:02;3.27;;;1.50;;
2934;SDS011;2462;51.456;7.248;2022-09-09T14:09:28;3.93;;;1.47;;
2934;SDS011;2462;51.456;7.248;2022-09-09T14:11:53;4.70;;;1.33;;
2934;SDS011;2462;51.456;7.248;2022-09-09T14:14:22;7.43;;;1.73;;
2934;SDS011;2462;51.456;7.248;2022-09-09T14:16:48;2.07;;;1.37;;
2934;SDS011;2462;51.456;7.248;2022-09-09T14:19:13;2.70;;;1.27;;
2934;SDS011;2462;51.456;7.248;2022-09-09T14:21:39;1.90;;;1.00;;
2934;SDS011;2462;51.456;7.248;2022-09-09T14:24:04;2.50;;;1.10;;
2934;SDS011;2462;51.456;7.248;2022-09-09T14:26:30;2.50;;;1.10;;
2934;SDS011;2462;51.456;7.248;2022-09-09T14:28:56;3.10;;;1.20;;
2934;SDS011;2462;51.456;7.248;2022-09-09T14:31:22;6.47;;;1.40;;
2934;SDS011;2462;51.456;7.248;2022-09-09T14:33:49;3.93;;;1.30;;
2934;SDS011;2462;51.456;7.248;2022-09-09T14:36:15;2.33;;;1.13;;
2934;SDS011;2462;51.456;7.248;2022-09-09T14:38:41;3.83;;;1.30;;
2934;SDS011;2462;51.456;7.248;2022-09-09T14:41:10;1.83;;;1.10;;
2934;SDS011;2462;51.456;7.248;2022-09-09T14:43:38;2.13;;;0.93;;
2934;SDS011;2462;51.456;7.248;2022-09-09T14:46:04;1.87;;;1.00;;
2934;SDS011;2462;51.456;7.248;2022-09-09T14:48:32;3.93;;;1.13;;
2934;SDS011;2462;51.456;7.248;2022-09-09T14:51:03;3.30;;;1.30;;
2934;SDS011;2462;51.456;7.248;2022-09-09T14:53:42;2.10;;;1.10;;
2934;SDS011;2462;51.456;7.248;2022-09-09T14:56:09;4.93;;;1.97;;
2934;SDS011;2462;51.456;7.248;2022-09-09T14:58:42;4.20;;;1.83;;
2934;SDS011;2462;51.456;7.248;2022-09-09T15:01:09;4.20;;;1.57;;
2934;SDS011;2462;51.456;7.248;2022-09-09T15:03:36;4.40;;;1.67;;
2934;SDS011;2462;51.456;7.248;2022-09-09T15:06:06;2.50;;;1.47;;
2934;SDS011;2462;51.456;7.248;2022-09-09T15:08:33;4.87;;;1.40;;
2934;SDS011;2462;51.456;7.248;2022-09-09T15:11:01;2.70;;;1.73;;
2934;SDS011;2462;51.456;7.248;2022-09-09T15:13:28;3.70;;;1.60;;
2934;SDS011;2462;51.456;7.248;2022-09-09T15:15:54;3.43;;;1.73;;
2934;SDS011;2462;51.456;7.248;2022-09-09T15:18:20;4.43;;;1.77;;
2934;SDS011;2462;51.456;7.248;2022-09-09T15:20:46;5.60;;;2.30;;
2934;SDS011;2462;51.456;7.248;2022-09-09T15:23:12;5.23;;;1.80;;
2934;SDS011;2462;51.456;7.248;2022-09-09T15:25:38;2.10;;;1.43;;
2934;SDS011;2462;51.456;7.248;2022-09-09T15:28:15;1.30;;;1.00;;
2934;SDS011;2462;51.456;7.248;2022-09-09T15:30:41;1.50;;;1.03;;
2934;SDS011;2462;51.456;7.248;2022-09-09T15:33:09;1.50;;;1.03;;
2934;SDS011;2462;51.456;7.248;2022-09-09T15:35:35;2.30;;;1.10;;
2934;SDS011;2462;51.456;7.248;2022-09-09T15:38:03;1.93;;;0.90;;
2934;SDS011;2462;51.456;7.248;2022-09-09T15:40:31;1.50;;;0.87;;
2934;SDS011;2462;51.456;7.248;2022-09-09T15:42:57;1.70;;;0.73;;
2934;SDS011;2462;51.456;7.248;2022-09-09T15:45:23;1.00;;;0.63;;
2934;SDS011;2462;51.456;7.248;2022-09-09T15:47:49;1.47;;;0.70;;
2934;SDS011;2462;51.456;7.248;2022-09-09T15:50:15;2.10;;;0.77;;
2934;SDS011;2462;51.456;7.248;2022-09-09T15:52:41;1.20;;;0.70;;
2934;SDS011;2462;51.456;7.248;2022-09-09T15:55:06;1.40;;;0.70;;
2934;SDS011;2462;51.456;7.248;2022-09-09T15:57:33;2.27;;;0.80;;
2934;SDS011;2462;51.456;7.248;2022-09-09T15:59:59;1.20;;;0.60;;
2934;SDS011;2462;51.456;7.248;2022-09-09T16:02:26;1.40;;;0.83;;
2934;SDS011;2462;51.456;7.248;2022-09-09T16:04:52;1.00;;;0.60;;
2934;SDS011;2462;51.456;7.248;2022-09-09T16:07:17;1.30;;;0.80;;
2934;SDS011;2462;51.456;7.248;2022-09-09T16:09:43;1.20;;;0.87;;
2934;SDS011;2462;51.456;7.248;2022-09-09T16:12:09;1.13;;;0.63;;
2934;SDS011;2462;51.456;7.248;2022-09-09T16:14:34;1.90;;;0.80;;
2934;SDS011;2462;51.456;7.248;2022-09-09T16:17:01;2.93;;;0.70;;
2934;SDS011;2462;51.456;7.248;2022-09-09T16:19:28;1.43;;;0.77;;
2934;SDS011;2462;51.456;7.248;2022-09-09T16:21:53;2.37;;;0.90;;
2934;SDS011;2462;51.456;7.248;2022-09-09T16:24:19;1.50;;;0.83;;
2934;SDS011;2462;51.456;7.248;2022-09-09T16:26:46;1.53;;;0.87;;
2934;SDS011;2462;51.456;7.248;2022-09-09T16:29:13;1.23;;;0.70;;
2934;SDS011;2462;51.456;7.248;2022-09-09T16:31:40;1.47;;;0.80;;
2934;SDS011;2462;51.456;7.248;2022-09-09T16:34:06;2.17;;;0.90;;
2934;SDS011;2462;51.456;7.248;2022-09-09T16:36:33;2.10;;;0.70;;
2934;SDS011;2462;51.456;7.248;2022-09-09T16:39:02;2.23;;;0.90;;
2934;SDS011;2462;51.456;7.248;2022-09-09T16:41:30;2.63;;;1.10;;
2934;SDS011;2462;51.456;7.248;2022-09-09T16:43:57;2.43;;;0.90;;
2934;SDS011;2462;51.456;7.248;2022-09-09T16:46:27;7.23;;;0.90;;
2934;SDS011;2462;51.456;7.248;2022-09-09T16:48:55;1.93;;;1.00;;
2934;SDS011;2462;51.456;7.248;2022-09-09T16:51:26;3.63;;;0.93;;
2934;SDS011;2462;51.456;7.248;2022-09-09T16:53:53;1.43;;;1.00;;
2934;SDS011;2462;51.456;7.248;2022-09-09T16:56:20;2.13;;;1.10;;
2934;SDS011;2462;51.456;7.248;2022-09-09T16:58:54;2.03;;;1.27;;
2934;SDS011;2462;51.456;7.248;2022-09-09T17:01:24;1.50;;;1.10;;
2934;SDS011;2462;51.456;7.248;2022-09-09T17:03:58;1.40;;;0.90;;
2934;SDS011;2462;51.456;7.248;2022-09-09T17:06:26;3.83;;;1.30;;
2934;SDS011;2462;51.456;7.248;2022-09-09T17:08:59;2.80;;;2.47;;
2934;SDS011;2462;51.456;7.248;2022-09-09T17:11:26;2.10;;;1.90;;
2934;SDS011;2462;51.456;7.248;2022-09-09T17:13:53;2.23;;;1.60;;
2934;SDS011;2462;51.456;7.248;2022-09-09T17:16:20;1.83;;;1.47;;
2934;SDS011;2462;51.456;7.248;2022-09-09T17:18:47;2.90;;;1.20;;
2934;SDS011;2462;51.456;7.248;2022-09-09T17:21:14;3.30;;;1.20;;
2934;SDS011;2462;51.456;7.248;2022-09-09T17:23:43;1.57;;;1.30;;
2934;SDS011;2462;51.456;7.248;2022-09-09T17:26:10;3.33;;;1.33;;
2934;SDS011;2462;51.456;7.248;2022-09-09T17:28:38;3.37;;;1.20;;
2934;SDS011;2462;51.456;7.248;2022-09-09T17:31:05;3.03;;;1.43;;
2934;SDS011;2462;51.456;7.248;2022-09-09T17:33:32;2.50;;;1.40;;
2934;SDS011;2462;51.456;7.248;2022-09-09T17:36:00;3.00;;;1.30;;
2934;SDS011;2462;51.456;7.248;2022-09-09T17:38:28;2.60;;;1.27;;